KVOK/VOK METAR and TAF weather

Enter ICAO airport designator
Station Type Date Time Source
KVOK METAR 2020/11/25 22:56 UTC NOAA

KVOK 252256Z AUTO 01004KT 8SM OVC003 02/02 A2983 RMK AO2 SLP114 T00170017


Station Type Date Time Source
KVOK Decoded METAR 2020/11/25 22:56 UTC NOAA

Volk / Camp Douglas, WI, United States (KVOK) 43-56N 090-16W
Nov 25, 2020 - 05:56 PM EST / 2020.11.25 2256 UTC
Wind: from the N (010 degrees) at 5 MPH (4 KT):0
Visibility: 8 mile(s):0
Sky conditions: overcast
Temperature: 35.1 F (1.7 C)
Dew Point: 35.1 F (1.7 C)
Relative Humidity: 100%
Pressure (altimeter): 29.83 in. Hg (1010 hPa)
ob: KVOK 252256Z AUTO 01004KT 8SM OVC003 02/02 A2983 RMK AO2 SLP114 T00170017
cycle: 23

Station Type Date Time Source
KVOK TAF 2020/11/25 17:06 UTC NOAA

TAF KVOK 251700Z 2517/2623 VRB06KT 9999 OVC005 QNH2984INS
BECMG 2615/2616 24009KT 9999 OVC008 QNH2990INS
BECMG 2619/2620 23010G15KT 9999 BKN015 510013 QNH2989INS
BECMG 2621/2622 25006KT 9999 BKN008 510013 QNH2990INS TX02/2617Z TN00/2522Z LAST NO
AMDS AFT 2517 NEXT 3009

Example: see airport list